sensor_id;sensor_type;location;lat;lon;timestamp;pressure;altitude;pressure_sealevel;temperature
27715;BMP280;16051;53.024;8.630;2023-02-02T00:07:53;101419.63;;;6.02
27715;BMP280;16051;53.024;8.630;2023-02-02T00:12:06;101402.84;;;6.00
27715;BMP280;16051;53.024;8.630;2023-02-02T00:16:48;101413.66;;;6.07
27715;BMP280;16051;53.024;8.630;2023-02-02T00:21:44;101416.34;;;6.11
27715;BMP280;16051;53.024;8.630;2023-02-02T00:26:17;101437.19;;;6.24
27715;BMP280;16051;53.024;8.630;2023-02-02T00:30:33;101403.41;;;6.11
27715;BMP280;16051;53.024;8.630;2023-02-02T00:34:57;101406.47;;;6.13
27715;BMP280;16051;53.024;8.630;2023-02-02T00:43:42;101410.84;;;6.11
27715;BMP280;16051;53.024;8.630;2023-02-02T00:48:15;101424.13;;;6.12
27715;BMP280;16051;53.024;8.630;2023-02-02T00:52:28;101433.28;;;6.06
27715;BMP280;16051;53.024;8.630;2023-02-02T00:57:01;101442.34;;;6.03
27715;BMP280;16051;53.024;8.630;2023-02-02T01:01:40;101467.59;;;6.14
27715;BMP280;16051;53.024;8.630;2023-02-02T01:06:17;101449.03;;;6.02
27715;BMP280;16051;53.024;8.630;2023-02-02T01:11:00;101459.19;;;5.81
27715;BMP280;16051;53.024;8.630;2023-02-02T01:16:07;101466.59;;;6.04
27715;BMP280;16051;53.024;8.630;2023-02-02T01:20:31;101480.03;;;5.99
27715;BMP280;16051;53.024;8.630;2023-02-02T01:24:41;101466.19;;;5.82
27715;BMP280;16051;53.024;8.630;2023-02-02T01:28:58;101489.34;;;5.81
27715;BMP280;16051;53.024;8.630;2023-02-02T01:33:16;101473.88;;;5.71
27715;BMP280;16051;53.024;8.630;2023-02-02T01:38:10;101494.72;;;5.65
27715;BMP280;16051;53.024;8.630;2023-02-02T01:43:02;101466.00;;;5.50
27715;BMP280;16051;53.024;8.630;2023-02-02T01:47:14;101480.72;;;5.60
27715;BMP280;16051;53.024;8.630;2023-02-02T01:51:49;101461.88;;;5.42
27715;BMP280;16051;53.024;8.630;2023-02-02T01:56:29;101476.56;;;5.52
27715;BMP280;16051;53.024;8.630;2023-02-02T02:00:42;101477.41;;;5.49
27715;BMP280;16051;53.024;8.630;2023-02-02T02:05:13;101498.88;;;5.50
27715;BMP280;16051;53.024;8.630;2023-02-02T02:09:27;101485.31;;;5.43
27715;BMP280;16051;53.024;8.630;2023-02-02T02:13:41;101520.69;;;5.57
27715;BMP280;16051;53.024;8.630;2023-02-02T02:18:29;101502.25;;;5.38
27715;BMP280;16051;53.024;8.630;2023-02-02T02:22:54;101508.19;;;5.33
27715;BMP280;16051;53.024;8.630;2023-02-02T02:32:46;101525.66;;;5.42
27715;BMP280;16051;53.024;8.630;2023-02-02T02:37:38;101534.28;;;5.41
27715;BMP280;16051;53.024;8.630;2023-02-02T02:41:49;101532.72;;;5.40
27715;BMP280;16051;53.024;8.630;2023-02-02T02:45:54;101550.63;;;5.48
27715;BMP280;16051;53.024;8.630;2023-02-02T02:49:58;101553.25;;;5.28
27715;BMP280;16051;53.024;8.630;2023-02-02T02:54:03;101548.44;;;5.13
27715;BMP280;16051;53.024;8.630;2023-02-02T02:58:13;101549.81;;;5.24
27715;BMP280;16051;53.024;8.630;2023-02-02T03:02:45;101557.03;;;5.11
27715;BMP280;16051;53.024;8.630;2023-02-02T03:07:22;101555.91;;;5.09
27715;BMP280;16051;53.024;8.630;2023-02-02T03:11:44;101563.16;;;4.95
27715;BMP280;16051;53.024;8.630;2023-02-02T03:16:08;101557.31;;;4.93
27715;BMP280;16051;53.024;8.630;2023-02-02T03:20:31;101570.00;;;5.07
27715;BMP280;16051;53.024;8.630;2023-02-02T03:24:44;101567.47;;;4.93
27715;BMP280;16051;53.024;8.630;2023-02-02T03:28:58;101574.19;;;4.88
27715;BMP280;16051;53.024;8.630;2023-02-02T03:33:10;101586.25;;;4.94
27715;BMP280;16051;53.024;8.630;2023-02-02T03:37:18;101569.94;;;4.84
27715;BMP280;16051;53.024;8.630;2023-02-02T03:41:24;101573.56;;;4.77
27715;BMP280;16051;53.024;8.630;2023-02-02T03:45:57;101560.91;;;4.57
27715;BMP280;16051;53.024;8.630;2023-02-02T03:50:08;101595.38;;;4.84
27715;BMP280;16051;53.024;8.630;2023-02-02T03:54:15;101586.88;;;4.75
27715;BMP280;16051;53.024;8.630;2023-02-02T03:58:25;101603.19;;;4.82
27715;BMP280;16051;53.024;8.630;2023-02-02T04:02:28;101590.91;;;4.64
27715;BMP280;16051;53.024;8.630;2023-02-02T04:06:38;101615.47;;;4.71
27715;BMP280;16051;53.024;8.630;2023-02-02T04:10:41;101621.63;;;4.78
27715;BMP280;16051;53.024;8.630;2023-02-02T04:14:51;101599.16;;;4.60
27715;BMP280;16051;53.024;8.630;2023-02-02T04:19:00;101617.09;;;4.65
27715;BMP280;16051;53.024;8.630;2023-02-02T04:23:09;101624.44;;;4.71
27715;BMP280;16051;53.024;8.630;2023-02-02T04:27:14;101616.97;;;4.75
27715;BMP280;16051;53.024;8.630;2023-02-02T04:31:18;101629.81;;;4.82
27715;BMP280;16051;53.024;8.630;2023-02-02T04:35:22;101613.56;;;4.68
27715;BMP280;16051;53.024;8.630;2023-02-02T04:39:28;101625.44;;;4.54
27715;BMP280;16051;53.024;8.630;2023-02-02T04:48:52;101611.81;;;4.51
27715;BMP280;16051;53.024;8.630;2023-02-02T04:52:57;101633.09;;;4.70
27715;BMP280;16051;53.024;8.630;2023-02-02T04:56:59;101615.97;;;4.62
27715;BMP280;16051;53.024;8.630;2023-02-02T05:01:08;101622.94;;;4.67
27715;BMP280;16051;53.024;8.630;2023-02-02T05:05:18;101621.03;;;4.64
27715;BMP280;16051;53.024;8.630;2023-02-02T05:09:21;101633.16;;;4.63
27715;BMP280;16051;53.024;8.630;2023-02-02T05:13:23;101637.44;;;4.64
27715;BMP280;16051;53.024;8.630;2023-02-02T05:17:28;101633.94;;;4.63
27715;BMP280;16051;53.024;8.630;2023-02-02T05:21:32;101633.88;;;4.67
27715;BMP280;16051;53.024;8.630;2023-02-02T05:25:34;101646.03;;;4.66
27715;BMP280;16051;53.024;8.630;2023-02-02T05:29:40;101649.25;;;4.57
27715;BMP280;16051;53.024;8.630;2023-02-02T05:33:47;101647.41;;;4.47
27715;BMP280;16051;53.024;8.630;2023-02-02T05:37:57;101645.34;;;4.58
27715;BMP280;16051;53.024;8.630;2023-02-02T05:42:00;101649.72;;;4.52
27715;BMP280;16051;53.024;8.630;2023-02-02T05:46:08;101659.88;;;4.52
27715;BMP280;16051;53.024;8.630;2023-02-02T05:50:16;101663.94;;;4.36
27715;BMP280;16051;53.024;8.630;2023-02-02T05:54:27;101641.34;;;4.29
27715;BMP280;16051;53.024;8.630;2023-02-02T05:58:50;101672.75;;;4.55
27715;BMP280;16051;53.024;8.630;2023-02-02T06:02:58;101665.41;;;4.44
27715;BMP280;16051;53.024;8.630;2023-02-02T06:07:07;101679.41;;;4.50
27715;BMP280;16051;53.024;8.630;2023-02-02T06:11:24;101674.53;;;4.31
27715;BMP280;16051;53.024;8.630;2023-02-02T06:15:34;101682.22;;;4.43
27715;BMP280;16051;53.024;8.630;2023-02-02T06:20:00;101693.81;;;4.58
27715;BMP280;16051;53.024;8.630;2023-02-02T06:24:11;101680.72;;;4.38
27715;BMP280;16051;53.024;8.630;2023-02-02T06:28:26;101701.94;;;4.65
27715;BMP280;16051;53.024;8.630;2023-02-02T06:32:32;101702.00;;;4.61
27715;BMP280;16051;53.024;8.630;2023-02-02T06:36:35;101696.63;;;4.51
27715;BMP280;16051;53.024;8.630;2023-02-02T06:40:46;101695.72;;;4.61
27715;BMP280;16051;53.024;8.630;2023-02-02T06:45:13;101709.47;;;4.54
27715;BMP280;16051;53.024;8.630;2023-02-02T06:49:18;101730.38;;;4.74
27715;BMP280;16051;53.024;8.630;2023-02-02T06:53:31;101714.56;;;4.55
27715;BMP280;16051;53.024;8.630;2023-02-02T06:58:01;101719.63;;;4.57
27715;BMP280;16051;53.024;8.630;2023-02-02T07:02:31;101727.34;;;4.65
27715;BMP280;16051;53.024;8.630;2023-02-02T07:06:50;101726.78;;;4.84
27715;BMP280;16051;53.024;8.630;2023-02-02T07:11:10;101739.75;;;4.77
27715;BMP280;16051;53.024;8.630;2023-02-02T07:15:29;101729.66;;;4.67
27715;BMP280;16051;53.024;8.630;2023-02-02T07:20:22;101748.75;;;4.77
27715;BMP280;16051;53.024;8.630;2023-02-02T07:24:26;101752.63;;;4.80
27715;BMP280;16051;53.024;8.630;2023-02-02T07:28:28;101758.84;;;4.84
27715;BMP280;16051;53.024;8.630;2023-02-02T07:32:34;101746.81;;;4.74
27715;BMP280;16051;53.024;8.630;2023-02-02T07:36:44;101761.16;;;4.85
27715;BMP280;16051;53.024;8.630;2023-02-02T07:46:21;101790.75;;;5.01
27715;BMP280;16051;53.024;8.630;2023-02-02T07:50:42;101781.03;;;4.93
27715;BMP280;16051;53.024;8.630;2023-02-02T07:55:10;101785.41;;;4.87
27715;BMP280;16051;53.024;8.630;2023-02-02T07:59:38;101797.34;;;5.04
27715;BMP280;16051;53.024;8.630;2023-02-02T08:04:02;101811.34;;;5.13
27715;BMP280;16051;53.024;8.630;2023-02-02T08:08:23;101800.06;;;5.07
27715;BMP280;16051;53.024;8.630;2023-02-02T08:13:01;101809.75;;;5.15
27715;BMP280;16051;53.024;8.630;2023-02-02T08:31:45;101858.53;;;5.31
27715;BMP280;16051;53.024;8.630;2023-02-02T08:35:47;101864.84;;;5.24
27715;BMP280;16051;53.024;8.630;2023-02-02T08:39:50;101860.56;;;5.23
27715;BMP280;16051;53.024;8.630;2023-02-02T08:43:52;101881.09;;;5.42
27715;BMP280;16051;53.024;8.630;2023-02-02T08:47:56;101891.28;;;5.41
27715;BMP280;16051;53.024;8.630;2023-02-02T08:51:58;101887.25;;;5.53
27715;BMP280;16051;53.024;8.630;2023-02-02T08:56:03;101897.75;;;5.58
27715;BMP280;16051;53.024;8.630;2023-02-02T09:00:08;101905.88;;;5.65
27715;BMP280;16051;53.024;8.630;2023-02-02T09:04:14;101913.59;;;5.77
27715;BMP280;16051;53.024;8.630;2023-02-02T09:08:27;101920.22;;;5.80
27715;BMP280;16051;53.024;8.630;2023-02-02T09:12:29;101924.09;;;5.82
27715;BMP280;16051;53.024;8.630;2023-02-02T09:16:33;101926.84;;;5.86
27715;BMP280;16051;53.024;8.630;2023-02-02T09:20:37;101932.69;;;5.88
27715;BMP280;16051;53.024;8.630;2023-02-02T09:24:41;101942.78;;;5.94
27715;BMP280;16051;53.024;8.630;2023-02-02T09:28:46;101936.41;;;6.05
27715;BMP280;16051;53.024;8.630;2023-02-02T09:32:49;101950.03;;;6.12
27715;BMP280;16051;53.024;8.630;2023-02-02T09:36:53;101961.34;;;6.17
27715;BMP280;16051;53.024;8.630;2023-02-02T09:40:55;101958.41;;;6.31
27715;BMP280;16051;53.024;8.630;2023-02-02T09:45:05;101959.50;;;6.37
27715;BMP280;16051;53.024;8.630;2023-02-02T09:49:12;101961.25;;;6.55
27715;BMP280;16051;53.024;8.630;2023-02-02T09:53:41;101972.31;;;6.74
27715;BMP280;16051;53.024;8.630;2023-02-02T09:57:50;101974.97;;;6.81
27715;BMP280;16051;53.024;8.630;2023-02-02T10:02:17;101990.97;;;6.86
27715;BMP280;16051;53.024;8.630;2023-02-02T10:06:32;101985.94;;;6.81
27715;BMP280;16051;53.024;8.630;2023-02-02T10:10:42;101988.69;;;6.81
27715;BMP280;16051;53.024;8.630;2023-02-02T10:14:53;101991.03;;;6.83
27715;BMP280;16051;53.024;8.630;2023-02-02T10:19:03;101989.00;;;6.87
27715;BMP280;16051;53.024;8.630;2023-02-02T10:23:18;102005.44;;;6.90
27715;BMP280;16051;53.024;8.630;2023-02-02T10:27:36;102006.06;;;7.02
27715;BMP280;16051;53.024;8.630;2023-02-02T10:32:01;102007.81;;;7.15
27715;BMP280;16051;53.024;8.630;2023-02-02T10:36:21;102000.94;;;7.27
27715;BMP280;16051;53.024;8.630;2023-02-02T10:40:46;102012.13;;;7.39
27715;BMP280;16051;53.024;8.630;2023-02-02T10:44:58;102017.38;;;7.54
27715;BMP280;16051;53.024;8.630;2023-02-02T10:49:29;102019.59;;;7.62
27715;BMP280;16051;53.024;8.630;2023-02-02T10:53:32;102037.94;;;7.69
27715;BMP280;16051;53.024;8.630;2023-02-02T10:57:52;102038.16;;;7.78
27715;BMP280;16051;53.024;8.630;2023-02-02T11:01:58;102034.66;;;7.77
27715;BMP280;16051;53.024;8.630;2023-02-02T11:06:03;102040.78;;;7.85
27715;BMP280;16051;53.024;8.630;2023-02-02T11:10:24;102035.63;;;7.87
27715;BMP280;16051;53.024;8.630;2023-02-02T11:14:37;102040.22;;;7.93
27715;BMP280;16051;53.024;8.630;2023-02-02T11:18:44;102048.06;;;7.95
27715;BMP280;16051;53.024;8.630;2023-02-02T11:22:46;102045.13;;;8.06
27715;BMP280;16051;53.024;8.630;2023-02-02T11:26:53;102053.50;;;8.18
27715;BMP280;16051;53.024;8.630;2023-02-02T11:30:57;102042.38;;;8.25
27715;BMP280;16051;53.024;8.630;2023-02-02T11:35:25;102047.84;;;8.29
27715;BMP280;16051;53.024;8.630;2023-02-02T11:39:29;102044.78;;;8.23
27715;BMP280;16051;53.024;8.630;2023-02-02T11:43:36;102052.16;;;8.30
27715;BMP280;16051;53.024;8.630;2023-02-02T11:47:41;102058.88;;;8.25
27715;BMP280;16051;53.024;8.630;2023-02-02T11:51:57;102057.34;;;8.24
27715;BMP280;16051;53.024;8.630;2023-02-02T11:56:04;102042.56;;;8.38
27715;BMP280;16051;53.024;8.630;2023-02-02T12:00:18;102050.88;;;8.34
27715;BMP280;16051;53.024;8.630;2023-02-02T12:04:26;102060.84;;;8.25
27715;BMP280;16051;53.024;8.630;2023-02-02T12:08:30;102063.59;;;8.25
27715;BMP280;16051;53.024;8.630;2023-02-02T12:12:44;102057.72;;;8.46
27715;BMP280;16051;53.024;8.630;2023-02-02T12:17:04;102056.59;;;8.44
27715;BMP280;16051;53.024;8.630;2023-02-02T12:21:19;102061.59;;;8.49
27715;BMP280;16051;53.024;8.630;2023-02-02T12:26:07;102047.59;;;8.59
27715;BMP280;16051;53.024;8.630;2023-02-02T12:30:26;102047.31;;;8.73
27715;BMP280;16051;53.024;8.630;2023-02-02T12:35:00;102049.56;;;8.78
27715;BMP280;16051;53.024;8.630;2023-02-02T12:39:20;102041.94;;;8.86
27715;BMP280;16051;53.024;8.630;2023-02-02T12:43:35;102045.94;;;8.81
27715;BMP280;16051;53.024;8.630;2023-02-02T12:48:04;102045.28;;;8.94
27715;BMP280;16051;53.024;8.630;2023-02-02T12:52:30;102045.81;;;9.05
27715;BMP280;16051;53.024;8.630;2023-02-02T12:56:43;102037.81;;;9.10
27715;BMP280;16051;53.024;8.630;2023-02-02T13:01:21;102036.00;;;9.20
27715;BMP280;16051;53.024;8.630;2023-02-02T13:05:44;102034.56;;;9.31
27715;BMP280;16051;53.024;8.630;2023-02-02T13:10:07;102026.38;;;9.28
27715;BMP280;16051;53.024;8.630;2023-02-02T13:14:14;102037.72;;;9.30
27715;BMP280;16051;53.024;8.630;2023-02-02T13:18:25;102033.00;;;9.30
27715;BMP280;16051;53.024;8.630;2023-02-02T13:22:33;102037.81;;;9.26
27715;BMP280;16051;53.024;8.630;2023-02-02T13:26:41;102033.94;;;9.24
27715;BMP280;16051;53.024;8.630;2023-02-02T13:30:46;102025.75;;;9.20
27715;BMP280;16051;53.024;8.630;2023-02-02T13:35:09;102037.72;;;9.14
27715;BMP280;16051;53.024;8.630;2023-02-02T13:39:37;102037.47;;;9.08
27715;BMP280;16051;53.024;8.630;2023-02-02T13:44:06;102037.72;;;9.14
27715;BMP280;16051;53.024;8.630;2023-02-02T13:48:40;102047.19;;;9.13
27715;BMP280;16051;53.024;8.630;2023-02-02T13:53:18;102052.22;;;9.18
27715;BMP280;16051;53.024;8.630;2023-02-02T14:02:33;102069.00;;;9.07
27715;BMP280;16051;53.024;8.630;2023-02-02T14:06:55;102072.41;;;8.95
27715;BMP280;16051;53.024;8.630;2023-02-02T14:11:11;102074.38;;;8.95
27715;BMP280;16051;53.024;8.630;2023-02-02T14:15:18;102071.25;;;8.76
27715;BMP280;16051;53.024;8.630;2023-02-02T14:19:49;102067.53;;;8.67
27715;BMP280;16051;53.024;8.630;2023-02-02T14:24:01;102074.59;;;8.68
27715;BMP280;16051;53.024;8.630;2023-02-02T14:28:10;102066.59;;;8.54
27715;BMP280;16051;53.024;8.630;2023-02-02T14:32:43;102062.66;;;8.55
27715;BMP280;16051;53.024;8.630;2023-02-02T14:37:17;102072.97;;;8.51
27715;BMP280;16051;53.024;8.630;2023-02-02T14:41:34;102075.22;;;8.36
27715;BMP280;16051;53.024;8.630;2023-02-02T14:46:35;102082.75;;;8.32
27715;BMP280;16051;53.024;8.630;2023-02-02T14:50:52;102087.16;;;8.29
27715;BMP280;16051;53.024;8.630;2023-02-02T14:54:55;102094.25;;;8.27
27715;BMP280;16051;53.024;8.630;2023-02-02T14:59:20;102096.22;;;8.26
27715;BMP280;16051;53.024;8.630;2023-02-02T15:03:53;102094.41;;;8.20
27715;BMP280;16051;53.024;8.630;2023-02-02T15:08:24;102105.75;;;8.22
27715;BMP280;16051;53.024;8.630;2023-02-02T15:12:33;102111.44;;;8.11
27715;BMP280;16051;53.024;8.630;2023-02-02T15:17:03;102107.25;;;8.03
27715;BMP280;16051;53.024;8.630;2023-02-02T15:21:13;102108.81;;;8.04
27715;BMP280;16051;53.024;8.630;2023-02-02T15:25:23;102116.25;;;8.07
27715;BMP280;16051;53.024;8.630;2023-02-02T15:29:48;102120.94;;;8.10
27715;BMP280;16051;53.024;8.630;2023-02-02T15:34:15;102133.06;;;7.89
27715;BMP280;16051;53.024;8.630;2023-02-02T15:38:29;102132.50;;;7.75
27715;BMP280;16051;53.024;8.630;2023-02-02T15:42:41;102143.91;;;7.77
27715;BMP280;16051;53.024;8.630;2023-02-02T15:46:55;102143.16;;;7.73
27715;BMP280;16051;53.024;8.630;2023-02-02T15:51:02;102141.38;;;7.86
27715;BMP280;16051;53.024;8.630;2023-02-02T15:55:21;102147.44;;;7.77
27715;BMP280;16051;53.024;8.630;2023-02-02T15:59:27;102144.34;;;7.72
27715;BMP280;16051;53.024;8.630;2023-02-02T16:03:48;102158.16;;;7.68
27715;BMP280;16051;53.024;8.630;2023-02-02T16:07:52;102165.22;;;7.69
27715;BMP280;16051;53.024;8.630;2023-02-02T16:11:57;102167.72;;;7.60
27715;BMP280;16051;53.024;8.630;2023-02-02T16:16:02;102173.69;;;7.55
27715;BMP280;16051;53.024;8.630;2023-02-02T16:20:12;102175.00;;;7.47
27715;BMP280;16051;53.024;8.630;2023-02-02T16:24:32;102173.13;;;7.40
27715;BMP280;16051;53.024;8.630;2023-02-02T16:29:08;102170.88;;;7.32
27715;BMP280;16051;53.024;8.630;2023-02-02T16:33:33;102176.47;;;7.25
27715;BMP280;16051;53.024;8.630;2023-02-02T16:37:37;102181.63;;;7.23
27715;BMP280;16051;53.024;8.630;2023-02-02T16:41:39;102186.38;;;7.19
27715;BMP280;16051;53.024;8.630;2023-02-02T16:45:48;102194.72;;;7.12
27715;BMP280;16051;53.024;8.630;2023-02-02T16:49:50;102188.19;;;6.99
27715;BMP280;16051;53.024;8.630;2023-02-02T16:54:22;102186.41;;;6.85
27715;BMP280;16051;53.024;8.630;2023-02-02T16:58:26;102184.03;;;6.87
27715;BMP280;16051;53.024;8.630;2023-02-02T17:02:33;102176.56;;;6.87
27715;BMP280;16051;53.024;8.630;2023-02-02T17:06:36;102172.47;;;6.69
27715;BMP280;16051;53.024;8.630;2023-02-02T17:10:41;102184.25;;;6.66
27715;BMP280;16051;53.024;8.630;2023-02-02T17:14:51;102180.41;;;6.60
27715;BMP280;16051;53.024;8.630;2023-02-02T17:18:55;102175.03;;;6.49
27715;BMP280;16051;53.024;8.630;2023-02-02T17:23:00;102185.66;;;6.47
27715;BMP280;16051;53.024;8.630;2023-02-02T17:27:03;102186.06;;;6.46
27715;BMP280;16051;53.024;8.630;2023-02-02T17:31:12;102189.25;;;6.37
27715;BMP280;16051;53.024;8.630;2023-02-02T17:35:19;102190.75;;;6.45
27715;BMP280;16051;53.024;8.630;2023-02-02T17:39:23;102185.03;;;6.32
27715;BMP280;16051;53.024;8.630;2023-02-02T17:43:26;102182.31;;;6.29
27715;BMP280;16051;53.024;8.630;2023-02-02T17:47:28;102191.72;;;6.28
27715;BMP280;16051;53.024;8.630;2023-02-02T17:52:05;102189.38;;;6.26
27715;BMP280;16051;53.024;8.630;2023-02-02T17:56:08;102183.16;;;6.19
27715;BMP280;16051;53.024;8.630;2023-02-02T18:00:11;102175.28;;;6.24
27715;BMP280;16051;53.024;8.630;2023-02-02T18:04:27;102167.44;;;6.23
27715;BMP280;16051;53.024;8.630;2023-02-02T18:08:42;102172.97;;;6.19
27715;BMP280;16051;53.024;8.630;2023-02-02T18:12:47;102171.47;;;6.15
27715;BMP280;16051;53.024;8.630;2023-02-02T18:16:49;102164.88;;;6.05
27715;BMP280;16051;53.024;8.630;2023-02-02T18:20:52;102169.19;;;6.06
27715;BMP280;16051;53.024;8.630;2023-02-02T18:25:19;102161.34;;;6.05
27715;BMP280;16051;53.024;8.630;2023-02-02T18:29:21;102150.00;;;6.03
27715;BMP280;16051;53.024;8.630;2023-02-02T18:33:26;102156.31;;;6.00
27715;BMP280;16051;53.024;8.630;2023-02-02T18:37:28;102144.81;;;6.12
27715;BMP280;16051;53.024;8.630;2023-02-02T18:41:41;102130.81;;;6.03
27715;BMP280;16051;53.024;8.630;2023-02-02T18:45:43;102130.41;;;6.01
27715;BMP280;16051;53.024;8.630;2023-02-02T18:49:45;102122.66;;;5.96
27715;BMP280;16051;53.024;8.630;2023-02-02T18:53:48;102125.72;;;6.01
27715;BMP280;16051;53.024;8.630;2023-02-02T18:57:53;102120.28;;;5.94
27715;BMP280;16051;53.024;8.630;2023-02-02T19:02:01;102117.19;;;5.92
27715;BMP280;16051;53.024;8.630;2023-02-02T19:06:04;102123.06;;;5.90
27715;BMP280;16051;53.024;8.630;2023-02-02T19:10:26;102117.53;;;5.98
27715;BMP280;16051;53.024;8.630;2023-02-02T19:14:31;102111.25;;;5.97
27715;BMP280;16051;53.024;8.630;2023-02-02T19:18:54;102102.66;;;5.95
27715;BMP280;16051;53.024;8.630;2023-02-02T19:23:09;102095.25;;;5.92
27715;BMP280;16051;53.024;8.630;2023-02-02T19:27:16;102099.53;;;5.97
27715;BMP280;16051;53.024;8.630;2023-02-02T19:31:20;102092.94;;;5.83
27715;BMP280;16051;53.024;8.630;2023-02-02T19:35:25;102082.34;;;5.89
27715;BMP280;16051;53.024;8.630;2023-02-02T19:39:36;102072.19;;;5.86
27715;BMP280;16051;53.024;8.630;2023-02-02T19:43:38;102073.31;;;5.92
27715;BMP280;16051;53.024;8.630;2023-02-02T19:47:45;102067.78;;;5.96
27715;BMP280;16051;53.024;8.630;2023-02-02T19:51:52;102065.72;;;6.07
27715;BMP280;16051;53.024;8.630;2023-02-02T19:55:55;102066.16;;;6.02
27715;BMP280;16051;53.024;8.630;2023-02-02T20:00:18;102060.56;;;6.12
27715;BMP280;16051;53.024;8.630;2023-02-02T20:04:22;102044.94;;;6.06
27715;BMP280;16051;53.024;8.630;2023-02-02T20:29:19;102007.97;;;6.17
27715;BMP280;16051;53.024;8.630;2023-02-02T20:33:23;102011.41;;;6.25
27715;BMP280;16051;53.024;8.630;2023-02-02T20:37:30;102004.19;;;6.38
27715;BMP280;16051;53.024;8.630;2023-02-02T20:41:36;101996.34;;;6.40
27715;BMP280;16051;53.024;8.630;2023-02-02T20:45:40;101997.63;;;6.32
27715;BMP280;16051;53.024;8.630;2023-02-02T20:49:43;101991.22;;;6.42
27715;BMP280;16051;53.024;8.630;2023-02-02T20:53:45;101997.78;;;6.48
27715;BMP280;16051;53.024;8.630;2023-02-02T20:57:47;101995.72;;;6.56
27715;BMP280;16051;53.024;8.630;2023-02-02T21:01:51;101993.91;;;6.46
27715;BMP280;16051;53.024;8.630;2023-02-02T21:05:59;101993.34;;;6.58
27715;BMP280;16051;53.024;8.630;2023-02-02T21:10:01;101994.84;;;6.62
27715;BMP280;16051;53.024;8.630;2023-02-02T21:14:05;101999.00;;;6.74
27715;BMP280;16051;53.024;8.630;2023-02-02T21:18:08;102002.75;;;6.87
27715;BMP280;16051;53.024;8.630;2023-02-02T21:22:11;102003.41;;;6.94
27715;BMP280;16051;53.024;8.630;2023-02-02T21:26:14;101996.56;;;7.06
27715;BMP280;16051;53.024;8.630;2023-02-02T21:30:16;101987.72;;;7.18
27715;BMP280;16051;53.024;8.630;2023-02-02T21:34:20;101993.84;;;7.29
27715;BMP280;16051;53.024;8.630;2023-02-02T21:38:22;101986.59;;;7.39
27715;BMP280;16051;53.024;8.630;2023-02-02T21:42:26;101979.66;;;7.54
27715;BMP280;16051;53.024;8.630;2023-02-02T21:46:54;101975.22;;;7.60
27715;BMP280;16051;53.024;8.630;2023-02-02T21:51:17;101965.66;;;7.68
27715;BMP280;16051;53.024;8.630;2023-02-02T21:55:39;101961.63;;;7.73
27715;BMP280;16051;53.024;8.630;2023-02-02T21:59:41;101935.13;;;7.63
27715;BMP280;16051;53.024;8.630;2023-02-02T22:09:17;101932.22;;;7.89
27715;BMP280;16051;53.024;8.630;2023-02-02T22:13:22;101930.19;;;7.93
27715;BMP280;16051;53.024;8.630;2023-02-02T22:17:35;101920.81;;;7.91
27715;BMP280;16051;53.024;8.630;2023-02-02T22:21:39;101933.78;;;7.90
27715;BMP280;16051;53.024;8.630;2023-02-02T22:25:44;101934.41;;;7.98
27715;BMP280;16051;53.024;8.630;2023-02-02T22:29:48;101945.41;;;7.98
27715;BMP280;16051;53.024;8.630;2023-02-02T22:33:50;101937.81;;;8.06
27715;BMP280;16051;53.024;8.630;2023-02-02T22:37:52;101942.88;;;8.07
27715;BMP280;16051;53.024;8.630;2023-02-02T22:41:56;101927.22;;;8.04
27715;BMP280;16051;53.024;8.630;2023-02-02T22:45:58;101930.50;;;8.15
27715;BMP280;16051;53.024;8.630;2023-02-02T22:50:09;101899.81;;;8.17
27715;BMP280;16051;53.024;8.630;2023-02-02T22:54:11;101884.84;;;8.18
27715;BMP280;16051;53.024;8.630;2023-02-02T22:58:15;101887.00;;;8.10
27715;BMP280;16051;53.024;8.630;2023-02-02T23:02:17;101858.69;;;8.10
27715;BMP280;16051;53.024;8.630;2023-02-02T23:06:19;101863.84;;;8.08
27715;BMP280;16051;53.024;8.630;2023-02-02T23:10:24;101872.94;;;8.24
27715;BMP280;16051;53.024;8.630;2023-02-02T23:14:28;101868.16;;;8.25
27715;BMP280;16051;53.024;8.630;2023-02-02T23:18:30;101881.59;;;8.23
27715;BMP280;16051;53.024;8.630;2023-02-02T23:22:32;101873.25;;;8.26
27715;BMP280;16051;53.024;8.630;2023-02-02T23:26:34;101849.06;;;8.18
27715;BMP280;16051;53.024;8.630;2023-02-02T23:30:38;101868.13;;;8.28
27715;BMP280;16051;53.024;8.630;2023-02-02T23:34:40;101842.50;;;8.31
27715;BMP280;16051;53.024;8.630;2023-02-02T23:39:08;101870.50;;;8.26
27715;BMP280;16051;53.024;8.630;2023-02-02T23:43:10;101871.16;;;8.34
27715;BMP280;16051;53.024;8.630;2023-02-02T23:47:13;101866.16;;;8.29
27715;BMP280;16051;53.024;8.630;2023-02-02T23:51:22;101869.97;;;8.35
27715;BMP280;16051;53.024;8.630;2023-02-02T23:55:25;101863.66;;;8.34
27715;BMP280;16051;53.024;8.630;2023-02-02T23:59:27;101868.81;;;8.32
